»·PEaware :: TEXAN15 KGEG-KPSC

TEXAN15 :: KGEG-KPSC

FLIGHT INFORMATION

Flight Status: Arrived
Operator: Unknown
More flights by this operator :: More flights under this callsign
Pilot: Indie I. (23336)
Aircraft: BEECH AIRCRAFT T-6A TEXAN
(TEX2)
More flights by this aircraft type
Origin: KGEG Spokane Intl
United States
Destination: KPSC Tri-Cities
United States
More flights between these airports :: More routes between these airports
Route: +GEG6 GEG V204 PSC
File this flight plan on PilotEdge
Remarks: request spokane 6 departure
Altitude:
(Current/Filed)
10,000ft
Speed:
(Current/Filed)
210kts
Departed: 23-Jun-20 06:28 AM
Arrived: 23-Jun-20 07:14 AM
Distance/Time
Traveled:
104nm/0:45
Distance/Time
To Go:
Arrived

Flight Plot

Page will automatically refresh every two minutes.

Flight plan parsing failed; only flown route is shown


Map Options




Map Legend


Flown Route
Filed Route
Departure Airport
Arrival Airport
Navaid (VOR, NDB)
Fix

Horizontal Profiles

Position Reports

Time Latitude Longitude Heading Altitude Ground
Speed
23-Jun-20 05:43 47.625723 -117.533164 45 2375ft 0kts
23-Jun-20 05:44 47.625725 -117.533161 45 2375ft 0kts
23-Jun-20 05:46 47.625728 -117.533157 45 2375ft 0kts
23-Jun-20 05:47 47.625729 -117.533154 45 2375ft 0kts
23-Jun-20 05:48 47.625731 -117.533152 45 2375ft 0kts
23-Jun-20 05:49 47.625733 -117.533150 45 2375ft 0kts
23-Jun-20 05:50 47.625734 -117.533147 45 2375ft 0kts
23-Jun-20 05:51 47.625736 -117.533145 45 2375ft 0kts
23-Jun-20 05:52 47.625737 -117.533142 45 2375ft 0kts
23-Jun-20 05:53 47.625739 -117.533140 45 2375ft 0kts
23-Jun-20 05:54 47.625741 -117.533138 45 2375ft 0kts
23-Jun-20 05:55 47.625742 -117.533135 45 2375ft 0kts
23-Jun-20 05:56 47.625744 -117.533133 45 2375ft 0kts
23-Jun-20 05:57 47.625746 -117.533130 45 2375ft 0kts
23-Jun-20 05:58 47.625747 -117.533128 45 2375ft 0kts
23-Jun-20 05:59 47.625749 -117.533126 45 2375ft 0kts
23-Jun-20 06:00 47.625750 -117.533123 45 2375ft 0kts
23-Jun-20 06:01 47.625752 -117.533121 45 2375ft 0kts
23-Jun-20 06:01 47.625753 -117.533119 45 2375ft 0kts
23-Jun-20 06:03 47.625755 -117.533116 45 2375ft 0kts
23-Jun-20 06:03 47.625756 -117.533114 45 2375ft 0kts
23-Jun-20 06:04 47.625758 -117.533112 45 2375ft 0kts
23-Jun-20 06:05 47.625760 -117.533109 45 2375ft 0kts
23-Jun-20 06:06 47.625761 -117.533107 45 2375ft 0kts
23-Jun-20 06:07 47.625762 -117.533105 45 2375ft 0kts
23-Jun-20 06:08 47.625764 -117.533103 45 2375ft 0kts
23-Jun-20 06:09 47.625766 -117.533101 45 2375ft 0kts
23-Jun-20 06:10 47.625767 -117.533098 45 2375ft 0kts
23-Jun-20 06:11 47.625769 -117.533096 45 2375ft 0kts
23-Jun-20 06:12 47.625770 -117.533093 45 2375ft 0kts
23-Jun-20 06:13 47.625772 -117.533091 45 2375ft 0kts
23-Jun-20 06:14 47.625774 -117.533089 45 2375ft 0kts
23-Jun-20 06:15 47.625775 -117.533086 45 2375ft 0kts
23-Jun-20 06:16 47.625777 -117.533084 45 2375ft 0kts
23-Jun-20 06:17 47.625778 -117.533082 45 2375ft 0kts
23-Jun-20 06:18 47.626193 -117.532229 44 2375ft 15kts
23-Jun-20 06:19 47.626903 -117.529227 37 2375ft 0kts
23-Jun-20 06:20 47.628485 -117.527156 49 2375ft 11kts
23-Jun-20 06:21 47.631449 -117.522660 48 2375ft 13kts
23-Jun-20 06:22 47.632189 -117.520098 139 2375ft 0kts
23-Jun-20 06:23 47.632112 -117.520007 144 2375ft 1kts
23-Jun-20 06:24 47.632025 -117.519930 152 2375ft 0kts
23-Jun-20 06:25 47.632019 -117.519925 151 2375ft 1kts
23-Jun-20 06:26 47.630606 -117.519186 225 2375ft 8kts
23-Jun-20 06:27 47.607130 -117.556134 225 3548ft 178kts
23-Jun-20 06:28 47.573925 -117.617523 229 6179ft 203kts
23-Jun-20 06:29 47.530802 -117.670022 223 9130ft 200kts
23-Jun-20 06:30 47.486587 -117.725263 221 10016ft 215kts
23-Jun-20 06:31 47.440054 -117.788106 223 10096ft 235kts
23-Jun-20 06:32 47.387692 -117.849124 219 10031ft 239kts
23-Jun-20 06:33 47.337941 -117.914378 221 10066ft 235kts
23-Jun-20 06:34 47.288388 -117.978046 220 10079ft 235kts
23-Jun-20 06:35 47.238439 -118.040431 220 10172ft 231kts
23-Jun-20 06:36 47.189028 -118.104432 219 9886ft 239kts
23-Jun-20 06:37 47.139004 -118.166838 218 10091ft 242kts
23-Jun-20 06:38 47.084789 -118.228115 215 10104ft 247kts
23-Jun-20 06:39 47.030240 -118.289471 217 9972ft 241kts
23-Jun-20 06:40 46.978475 -118.348321 218 9922ft 231kts
23-Jun-20 06:41 46.931136 -118.410667 218 10009ft 224kts
23-Jun-20 06:42 46.882074 -118.469053 220 9881ft 229kts
23-Jun-20 06:43 46.832648 -118.529132 219 9923ft 235kts
23-Jun-20 06:44 46.780374 -118.589182 219 9949ft 239kts
23-Jun-20 06:45 46.727360 -118.647893 216 9938ft 242kts
23-Jun-20 06:46 46.670788 -118.699197 215 8394ft 236kts
23-Jun-20 06:47 46.619446 -118.753770 214 6660ft 225kts
23-Jun-20 06:48 46.562376 -118.790330 196 4619ft 221kts
23-Jun-20 06:49 46.505915 -118.814176 195 3017ft 175kts
23-Jun-20 06:50 46.464458 -118.832217 202 3071ft 182kts
23-Jun-20 06:51 46.428947 -118.877000 225 2970ft 169kts
23-Jun-20 06:52 46.396164 -118.926017 224 3022ft 169kts
23-Jun-20 06:53 46.368151 -118.968484 225 3052ft 129kts
23-Jun-20 06:54 46.342916 -119.005687 224 2701ft 128kts
23-Jun-20 06:55 46.318570 -119.040843 226 1741ft 119kts
23-Jun-20 06:56 46.295821 -119.074754 225 1169ft 115kts
23-Jun-20 06:57 46.272804 -119.108798 223 523ft 114kts
23-Jun-20 06:58 46.249183 -119.145582 231 1509ft 169kts
23-Jun-20 06:59 46.277911 -119.144427 51 1544ft 195kts
23-Jun-20 07:00 46.275699 -119.104078 221 1378ft 187kts
23-Jun-20 07:01 46.263607 -119.157304 27 1568ft 168kts
23-Jun-20 07:02 46.286237 -119.116207 104 1353ft 117kts
23-Jun-20 07:03 46.261209 -119.125869 223 636ft 118kts
23-Jun-20 07:04 46.267683 -119.140500 51 1486ft 140kts
23-Jun-20 07:05 46.280689 -119.102799 168 789ft 110kts
23-Jun-20 07:06 46.257522 -119.131653 233 921ft 149kts
23-Jun-20 07:07 46.277441 -119.128097 76 3332ft 167kts
23-Jun-20 07:08 46.262720 -119.107431 241 3480ft 148kts
23-Jun-20 07:09 46.279699 -119.101308 116 1831ft 125kts
23-Jun-20 07:10 46.257123 -119.132984 229 1124ft 159kts
23-Jun-20 07:11 46.281146 -119.130371 51 1426ft 152kts
23-Jun-20 07:12 46.279482 -119.101518 202 823ft 126kts
23-Jun-20 07:13 46.263322 -119.122656 225 410ft 15kts
23-Jun-20 07:14 46.261333 -119.122592 136 410ft 14kts
23-Jun-20 07:15 46.260208 -119.120212 71 410ft 21kts
23-Jun-20 07:16 46.260208 -119.120212 71 410ft 21kts
23-Jun-20 07:17 46.260319 -119.119231 64 410ft 0kts
23-Jun-20 07:18 46.260374 -119.119174 4 410ft 0kts
23-Jun-20 07:19 46.260376 -119.119174 4 410ft 0kts
23-Jun-20 07:20 46.260380 -119.119173 4 410ft 0kts
23-Jun-20 07:21 46.260383 -119.119173 4 410ft 0kts
23-Jun-20 07:22 46.260386 -119.119173 4 410ft 0kts

Navigation Log

Ident Type
Flight plan parsing failed, navigation log unavailable